Time;durP1;ratioP1;P1;durP2;ratioP2;P2;SDS_P1;SDS_P2;PMS_P1;PMS_P2;Temp;Humidity;BMP_temperature;BMP_pressure;BME280_temperature;BME280_humidity;BME280_pressure;Samples;Min_cycle;Max_cycle;Signal;HPM_P1;HPM_P2
2022/06/04 00:00:49;;;;;;;0.10;0.10;;;;;;;21.44;42.73;101281.47;5112218;28;20080;-33
2022/06/04 00:03:15;;;;;;;0.10;0.10;;;;;;;21.45;42.73;101291.44;5112327;28;20397;-33
2022/06/04 00:05:44;;;;;;;0.10;0.10;;;;;;;21.45;42.56;101291.44;5129788;28;20083;-33
2022/06/04 00:08:10;;;;;;;0.10;0.10;;;;;;;21.45;42.69;101296.97;5108998;28;20533;-33
2022/06/04 00:16:10;;;;;;;0.10;0.10;;;;;;;21.44;42.71;101286.19;5111045;27;20478;-33
2022/06/04 00:18:37;;;;;;;0.10;0.10;;;;;;;21.44;42.61;101283.41;5129398;28;20046;-34
2022/06/04 00:21:03;;;;;;;0.10;0.10;;;;;;;21.44;42.82;101275.09;5126498;28;20139;-33
2022/06/04 00:23:29;;;;;;;0.10;0.10;;;;;;;21.43;42.59;101285.38;5129396;28;20520;-33
2022/06/04 00:25:57;;;;;;;0.10;0.10;;;;;;;21.44;42.74;101287.00;5129636;28;20500;-33
2022/06/04 00:28:24;;;;;;;0.10;0.10;;;;;;;21.44;42.61;101291.72;5128418;28;20077;-34
2022/06/04 00:30:52;;;;;;;0.10;0.10;;;;;;;21.43;42.84;101290.91;5130919;28;20043;-33
2022/06/04 00:33:18;;;;;;;0.10;0.10;;;;;;;21.43;42.62;101282.59;5125766;28;20090;-33
2022/06/04 00:35:46;;;;;;;0.10;0.10;;;;;;;21.44;42.69;101278.69;5129418;28;20075;-34
2022/06/04 00:38:14;;;;;;;0.10;0.10;;;;;;;21.44;42.84;101275.09;5094435;28;20082;-33
2022/06/04 00:41:03;;;;;;;0.10;0.10;;;;;;;21.43;42.70;101277.06;5130593;28;20070;-33
2022/06/04 00:43:29;;;;;;;0.10;0.10;;;;;;;21.44;42.65;101286.19;5111676;28;20125;-33
2022/06/04 00:46:35;;;;;;;0.10;0.10;;;;;;;21.44;42.87;101302.81;5128555;27;20043;-33
2022/06/04 00:49:00;;;;;;;0.10;0.10;;;;;;;21.44;42.74;101308.34;5116664;28;20070;-33
2022/06/04 00:51:26;;;;;;;0.10;0.10;;;;;;;21.43;42.69;101315.84;5127425;28;20045;-33
2022/06/04 00:53:54;;;;;;;0.10;0.10;;;;;;;21.43;42.75;101309.47;5128874;28;20150;-33
2022/06/04 00:56:34;;;;;;;0.10;0.10;;;;;;;21.42;42.91;101302.28;5111167;27;20402;-33
2022/06/04 00:59:25;;;;;;;0.20;0.20;;;;;;;21.43;42.74;101302.00;5125446;28;20079;-33
2022/06/04 01:02:00;;;;;;;0.10;0.10;;;;;;;21.43;42.81;101306.72;5114874;28;20096;-32
2022/06/04 01:04:53;;;;;;;0.10;0.10;;;;;;;21.43;42.77;101320.56;5128866;28;20079;-33
2022/06/04 01:07:58;;;;;;;0.10;0.10;;;;;;;21.41;42.76;101323.59;5126682;28;20084;-34
2022/06/04 01:11:04;;;;;;;0.10;0.10;;;;;;;21.43;42.84;101340.78;5103089;28;20051;-34
2022/06/04 01:14:09;;;;;;;0.10;0.10;;;;;;;21.43;42.82;101345.50;5112147;28;20459;-34
2022/06/04 01:16:43;;;;;;;0.10;0.10;;;;;;;21.42;42.84;101352.16;5113448;27;20084;-34
2022/06/04 01:27:53;;;;;;;0.10;0.10;;;;;;;21.40;42.86;101349.66;5165610;27;20513;-33
2022/06/04 01:30:23;;;;;;;0.10;0.10;;;;;;;21.41;42.93;101350.47;5164112;27;20119;-33
2022/06/04 01:32:54;;;;;;;0.10;0.10;;;;;;;21.42;42.82;101354.94;5165125;27;20066;-33
2022/06/04 01:35:43;;;;;;;0.10;0.10;;;;;;;21.41;42.79;101342.16;5164748;27;20499;-33
2022/06/04 01:38:19;;;;;;;0.10;0.10;;;;;;;21.41;42.88;101351.31;5147409;27;20074;-33
2022/06/04 01:41:04;;;;;;;0.10;0.10;;;;;;;21.40;42.91;101349.66;5166604;27;20051;-33
2022/06/04 01:43:35;;;;;;;0.10;0.10;;;;;;;21.41;42.79;101351.31;5166546;27;20300;-33
2022/06/04 01:46:07;;;;;;;0.10;0.10;;;;;;;21.41;42.80;101353.25;5162487;27;20043;-33
2022/06/04 01:48:33;;;;;;;0.10;0.10;;;;;;;21.41;42.84;101353.25;5165720;27;20070;-33
2022/06/04 01:51:03;;;;;;;0.10;0.10;;;;;;;21.40;42.94;101355.19;5166669;27;20223;-33
2022/06/04 01:53:34;;;;;;;0.10;0.10;;;;;;;21.41;42.96;101354.06;5167093;27;20453;-33
2022/06/04 01:56:03;;;;;;;0.10;0.10;;;;;;;21.40;43.02;101357.97;5149169;27;20081;-34
2022/06/04 01:58:36;;;;;;;0.10;0.10;;;;;;;21.41;42.99;101361.56;5166700;27;20205;-33
2022/06/04 02:01:07;;;;;;;0.10;0.10;;;;;;;21.41;42.91;101358.78;5148224;27;20038;-33
2022/06/04 02:03:53;;;;;;;0.10;0.10;;;;;;;21.40;42.86;101349.66;5166050;27;20043;-33
2022/06/04 02:06:21;;;;;;;0.10;0.10;;;;;;;21.40;42.88;101352.44;5165652;27;20081;-33
2022/06/04 02:08:55;;;;;;;0.10;0.10;;;;;;;21.40;42.92;101355.19;5160528;27;20063;-33
2022/06/04 02:11:23;;;;;;;0.10;0.10;;;;;;;21.39;42.81;101350.78;5167511;27;20425;-33
2022/06/04 02:13:51;;;;;;;0.10;0.10;;;;;;;21.39;43.06;101352.72;5164780;27;20038;-33
2022/06/04 02:16:26;;;;;;;0.10;0.10;;;;;;;21.40;42.89;101359.91;5144784;27;20074;-33
2022/06/04 02:18:55;;;;;;;0.10;0.10;;;;;;;21.39;42.87;101341.63;5167136;27;20039;-32
2022/06/04 02:21:22;;;;;;;0.10;0.10;;;;;;;21.40;42.81;101346.06;5166245;27;20081;-32
2022/06/04 02:23:48;;;;;;;0.10;0.10;;;;;;;21.40;42.95;101346.06;5164322;27;20058;-33
2022/06/04 02:26:14;;;;;;;0.10;0.10;;;;;;;21.38;42.90;101338.03;5166625;27;20077;-33
2022/06/04 02:28:41;;;;;;;0.10;0.10;;;;;;;21.39;42.77;101342.47;5160612;27;20161;-32
2022/06/04 02:31:15;;;;;;;0.10;0.10;;;;;;;21.38;42.88;101332.50;5169385;27;20489;-32
2022/06/04 02:33:53;;;;;;;0.10;0.10;;;;;;;21.38;42.89;101338.03;5162321;27;20416;-32
2022/06/04 02:36:27;;;;;;;0.10;0.10;;;;;;;21.38;43.01;101338.03;5165322;27;20572;-32
2022/06/04 02:38:59;;;;;;;0.10;0.10;;;;;;;21.39;42.84;101333.31;5154360;27;20147;-32
2022/06/04 02:41:32;;;;;;;0.10;0.10;;;;;;;21.38;43.05;101338.03;5152282;27;20062;-32
2022/06/04 02:44:08;;;;;;;0.10;0.10;;;;;;;21.38;42.90;101335.28;5152320;27;20070;-32
2022/06/04 02:46:46;;;;;;;0.10;0.10;;;;;;;21.38;43.14;101349.13;5153283;27;20100;-32
2022/06/04 02:51:55;;;;;;;0.10;0.10;;;;;;;21.37;43.07;101333.59;5159823;27;20193;-33
2022/06/04 02:54:26;;;;;;;0.10;0.10;;;;;;;21.38;43.05;101321.41;5157126;27;20075;-33
2022/06/04 02:56:52;;;;;;;0.10;0.10;;;;;;;21.37;42.94;101305.88;5140821;27;20047;-33
2022/06/04 02:59:19;;;;;;;0.10;0.10;;;;;;;21.37;43.04;101299.53;5153688;27;20096;-32
2022/06/04 03:01:46;;;;;;;0.10;0.10;;;;;;;21.37;42.79;101297.56;5134011;27;20046;-33
2022/06/04 03:04:12;;;;;;;0.10;0.10;;;;;;;21.38;43.08;101310.34;5154656;27;20046;-32
2022/06/04 03:06:38;;;;;;;0.10;0.10;;;;;;;21.38;42.93;101301.19;5156221;27;20369;-32
2022/06/04 03:09:05;;;;;;;0.10;0.10;;;;;;;21.37;42.83;101310.59;5159856;27;20098;-32
2022/06/04 03:11:35;;;;;;;0.10;0.10;;;;;;;21.37;42.90;101303.13;5158242;27;20133;-32
2022/06/04 03:14:00;;;;;;;0.30;0.30;;;;;;;21.38;42.98;101299.25;5158732;27;20081;-32
2022/06/04 03:16:35;;;;;;;0.10;0.10;;;;;;;21.37;42.98;101296.75;5155888;27;20055;-33
2022/06/04 03:19:01;;;;;;;0.10;0.10;;;;;;;21.37;42.89;101286.50;5154618;27;20077;-33
2022/06/04 03:21:28;;;;;;;0.10;0.10;;;;;;;21.37;42.96;101300.34;5156237;27;20046;-33
2022/06/04 03:23:53;;;;;;;0.10;0.10;;;;;;;21.36;42.99;101301.47;5152958;27;20129;-32
2022/06/04 03:26:19;;;;;;;0.10;0.10;;;;;;;21.37;42.88;101303.13;5155800;27;20401;-33
2022/06/04 03:28:45;;;;;;;0.10;0.10;;;;;;;21.38;43.27;101312.28;5153094;27;20046;-33
2022/06/04 03:31:10;;;;;;;0.10;0.10;;;;;;;21.37;43.10;101316.97;5157476;27;20049;-33
2022/06/04 03:33:36;;;;;;;0.10;0.10;;;;;;;21.37;42.88;101308.66;5154868;27;20042;-33
2022/06/04 03:36:02;;;;;;;0.10;0.10;;;;;;;21.36;42.99;101298.69;5157376;27;20493;-33
2022/06/04 03:38:28;;;;;;;0.10;0.10;;;;;;;21.37;42.99;101303.13;5156858;27;20074;-33
2022/06/04 03:40:53;;;;;;;0.10;0.10;;;;;;;21.37;42.99;101313.38;5156130;27;20039;-33
2022/06/04 03:43:19;;;;;;;0.10;0.10;;;;;;;21.36;42.88;101314.50;5160602;27;20101;-33
2022/06/04 03:45:45;;;;;;;0.10;0.10;;;;;;;21.37;43.04;101321.69;5156425;27;20064;-33
2022/06/04 03:48:10;;;;;;;0.10;0.10;;;;;;;21.37;42.86;101327.22;5157628;27;20070;-33
2022/06/04 03:50:36;;;;;;;0.10;0.10;;;;;;;21.36;43.04;101337.47;5159874;27;20469;-33
2022/06/04 03:53:02;;;;;;;0.10;0.10;;;;;;;21.36;43.17;101336.66;5160201;27;20106;-33
2022/06/04 03:55:27;;;;;;;0.10;0.10;;;;;;;21.36;43.15;101331.94;5155728;27;20043;-33
2022/06/04 03:57:53;;;;;;;0.10;0.10;;;;;;;21.36;42.93;101344.97;5157652;27;20035;-33
2022/06/04 04:00:23;;;;;;;0.10;0.10;;;;;;;21.36;43.07;101342.19;5158806;27;20062;-33
2022/06/04 04:02:52;;;;;;;0.10;0.10;;;;;;;21.36;43.06;101347.75;5141447;27;20045;-33
2022/06/04 04:05:21;;;;;;;0.10;0.10;;;;;;;21.35;42.89;101341.38;5142682;27;20039;-34
2022/06/04 04:07:47;;;;;;;0.10;0.10;;;;;;;21.36;43.08;101353.28;5142238;27;20104;-33
2022/06/04 04:10:13;;;;;;;0.10;0.10;;;;;;;21.36;43.00;101356.06;5143699;27;20519;-33
2022/06/04 04:12:39;;;;;;;0.10;0.10;;;;;;;21.37;43.09;101360.47;5127651;27;20038;-33
2022/06/04 04:15:06;;;;;;;0.10;0.10;;;;;;;21.35;43.16;101354.41;5143155;27;20093;-34
2022/06/04 04:17:31;;;;;;;0.10;0.10;;;;;;;21.35;43.15;101363.53;5146410;27;20082;-34
2022/06/04 04:19:57;;;;;;;0.10;0.10;;;;;;;21.35;43.13;101363.53;5138386;27;20507;-33
2022/06/04 04:22:23;;;;;;;0.10;0.10;;;;;;;21.36;42.98;101369.91;5146354;27;20043;-34
2022/06/04 04:24:48;;;;;;;0.10;0.10;;;;;;;21.36;43.07;101359.66;5141697;27;20046;-33
2022/06/04 04:27:14;;;;;;;0.10;0.10;;;;;;;21.35;43.08;101355.22;5142869;27;20447;-33
2022/06/04 04:29:40;;;;;;;0.10;0.10;;;;;;;21.35;43.00;101362.72;5143882;27;20046;-33
2022/06/04 04:32:07;;;;;;;0.10;0.10;;;;;;;21.35;42.96;101360.78;5139084;27;20494;-33
2022/06/04 04:34:33;;;;;;;0.10;0.10;;;;;;;21.34;42.99;101367.44;5144776;27;20070;-33
2022/06/04 04:36:59;;;;;;;0.10;0.10;;;;;;;21.35;43.08;101357.19;5124333;27;20446;-33
2022/06/04 04:39:24;;;;;;;0.13;0.13;;;;;;;21.35;43.13;101363.53;5144041;27;20047;-33
2022/06/04 04:41:51;;;;;;;0.10;0.10;;;;;;;21.35;43.04;101362.72;5143286;27;20050;-33
2022/06/04 04:44:16;;;;;;;0.10;0.10;;;;;;;21.35;43.12;101362.72;5144322;27;20347;-33
2022/06/04 04:46:42;;;;;;;0.10;0.10;;;;;;;21.35;43.17;101349.69;5143563;27;20053;-33
2022/06/04 04:49:08;;;;;;;0.10;0.10;;;;;;;21.35;43.08;101354.41;5137744;27;20049;-33
2022/06/04 04:51:34;;;;;;;0.10;0.10;;;;;;;21.34;43.17;101367.44;5140394;27;21453;-33
2022/06/04 04:54:01;;;;;;;0.10;0.10;;;;;;;21.34;42.98;101375.75;5140573;27;20043;-33
2022/06/04 04:56:27;;;;;;;0.10;0.10;;;;;;;21.34;43.18;101372.97;5141247;27;20070;-32
2022/06/04 04:58:53;;;;;;;0.10;0.10;;;;;;;21.34;42.96;101378.50;5141073;27;20066;-32
2022/06/04 05:01:22;;;;;;;0.10;0.10;;;;;;;21.35;43.15;101376.56;5145468;27;20127;-32
2022/06/04 05:03:49;;;;;;;0.10;0.10;;;;;;;21.34;43.12;101381.28;5143201;27;20043;-32
2022/06/04 05:06:16;;;;;;;0.10;0.10;;;;;;;21.35;43.32;101382.94;5144528;27;20540;-33
2022/06/04 05:08:42;;;;;;;0.10;0.10;;;;;;;21.34;43.05;101386.00;5115068;27;20225;-32
2022/06/04 05:11:10;;;;;;;0.10;0.10;;;;;;;21.34;42.98;101389.59;5144689;27;20776;-32
2022/06/04 05:13:35;;;;;;;0.10;0.10;;;;;;;21.34;42.99;101394.31;5144826;27;20548;-33
2022/06/04 05:16:02;;;;;;;0.10;0.10;;;;;;;21.35;43.09;101398.72;5123275;27;20129;-32
2022/06/04 05:18:27;;;;;;;0.20;0.20;;;;;;;21.35;43.16;101401.50;5139345;27;20072;-32
2022/06/04 05:20:53;;;;;;;0.10;0.10;;;;;;;21.35;43.15;101404.28;5139887;27;20051;-32
2022/06/04 05:23:19;;;;;;;0.10;0.10;;;;;;;21.33;43.17;101395.41;5145125;27;20049;-32
2022/06/04 05:25:44;;;;;;;0.10;0.10;;;;;;;21.33;43.21;101392.63;5143558;27;20043;-33
2022/06/04 05:28:10;;;;;;;0.10;0.10;;;;;;;21.34;43.16;101402.63;5143384;27;20603;-32
2022/06/04 05:30:36;;;;;;;0.10;0.10;;;;;;;21.34;43.20;101403.44;5143890;27;20042;-32
2022/06/04 05:33:02;;;;;;;0.10;0.10;;;;;;;21.34;43.16;101400.69;5142068;27;20039;-32
2022/06/04 05:35:28;;;;;;;0.10;0.10;;;;;;;21.34;43.28;101409.00;5143464;27;20855;-33
2022/06/04 05:37:53;;;;;;;0.10;0.10;;;;;;;21.32;43.22;101408.44;5146636;27;20054;-33
2022/06/04 05:40:19;;;;;;;0.10;0.10;;;;;;;21.34;43.24;101416.47;5143117;27;20039;-32
2022/06/04 05:42:44;;;;;;;0.10;0.10;;;;;;;21.33;43.06;101409.25;5123923;27;20051;-33
2022/06/04 05:45:10;;;;;;;0.10;0.10;;;;;;;21.33;43.13;101409.25;5141207;27;20047;-32
2022/06/04 05:47:36;;;;;;;0.10;0.10;;;;;;;21.32;43.22;101405.66;5136835;27;20385;-33
2022/06/04 05:50:02;;;;;;;0.13;0.13;;;;;;;21.34;43.25;101416.47;5146983;27;20047;-32
2022/06/04 05:52:28;;;;;;;0.20;0.20;;;;;;;21.33;43.12;101415.66;5143800;27;20529;-32
2022/06/04 05:54:54;;;;;;;0.10;0.10;;;;;;;21.32;43.34;101419.50;5141262;27;20043;-32
2022/06/04 05:57:19;;;;;;;0.10;0.10;;;;;;;21.32;42.99;101416.75;5142053;27;20038;-32
2022/06/04 05:59:45;;;;;;;0.10;0.10;;;;;;;21.33;43.10;101417.56;5138969;27;20043;-32
2022/06/04 06:02:11;;;;;;;0.10;0.10;;;;;;;21.32;43.19;101422.28;5140985;27;20051;-32
2022/06/04 06:04:37;;;;;;;0.10;0.10;;;;;;;21.32;43.19;101425.03;5141717;27;20054;-32
2022/06/04 06:07:02;;;;;;;0.10;0.10;;;;;;;21.33;43.23;101431.41;5144382;27;20404;-32
2022/06/04 06:09:28;;;;;;;0.10;0.10;;;;;;;21.33;43.21;101435.03;5139333;27;20434;-32
2022/06/04 06:11:54;;;;;;;0.17;0.17;;;;;;;21.32;43.29;101436.13;5141741;27;20141;-32
2022/06/04 06:14:21;;;;;;;0.10;0.10;;;;;;;21.32;43.04;101438.06;5139149;27;20078;-33
2022/06/04 06:16:48;;;;;;;0.10;0.10;;;;;;;21.33;43.13;101431.41;5143068;27;20074;-33
2022/06/04 06:19:15;;;;;;;0.10;0.10;;;;;;;21.32;43.08;101430.59;5141842;27;20070;-32
2022/06/04 06:21:41;;;;;;;0.10;0.10;;;;;;;21.32;43.19;101429.75;5127336;27;20082;-33
2022/06/04 06:24:08;;;;;;;0.10;0.10;;;;;;;21.32;43.24;101432.53;5122295;27;20122;-32
2022/06/04 06:26:39;;;;;;;0.10;0.10;;;;;;;21.33;43.21;101434.19;5144058;27;20093;-33
2022/06/04 06:29:05;;;;;;;0.10;0.10;;;;;;;21.32;43.16;101435.31;5145527;27;20107;-33
2022/06/04 06:31:32;;;;;;;0.10;0.10;;;;;;;21.33;43.16;101439.72;5142600;27;20125;-33
2022/06/04 06:33:58;;;;;;;0.10;0.10;;;;;;;21.31;43.18;101434.44;5135055;27;20047;-32
2022/06/04 06:36:23;;;;;;;0.10;0.10;;;;;;;21.32;43.27;101438.91;5138550;27;20476;-33
2022/06/04 06:38:49;;;;;;;0.10;0.10;;;;;;;21.33;43.33;101439.72;5120609;27;20039;-32
2022/06/04 06:41:17;;;;;;;0.10;0.10;;;;;;;21.32;43.26;101447.22;5137374;27;20042;-32
2022/06/04 06:43:47;;;;;;;0.10;0.10;;;;;;;21.31;43.42;101453.84;5141350;27;20461;-32
2022/06/04 06:46:17;;;;;;;0.10;0.10;;;;;;;21.31;43.24;101459.38;5120915;27;20055;-32
2022/06/04 06:48:44;;;;;;;0.10;0.10;;;;;;;21.31;43.36;101470.47;5142163;27;20078;-33
2022/06/04 06:51:15;;;;;;;0.10;0.10;;;;;;;21.31;43.09;101476.00;5144394;27;20089;-33
2022/06/04 06:53:40;;;;;;;0.10;0.10;;;;;;;21.32;43.36;101490.72;5124905;27;20085;-33
2022/06/04 06:56:15;;;;;;;0.10;0.10;;;;;;;21.30;43.28;101486.25;5142504;27;20046;-32
2022/06/04 06:58:41;;;;;;;0.10;0.10;;;;;;;21.32;43.23;101487.94;5141115;27;20070;-33
2022/06/04 07:01:08;;;;;;;0.10;0.10;;;;;;;21.32;43.35;101479.63;5142901;27;20129;-32
2022/06/04 07:03:35;;;;;;;0.10;0.10;;;;;;;21.30;43.35;101477.13;5139162;27;20039;-32
2022/06/04 07:06:00;;;;;;;0.10;0.10;;;;;;;21.30;43.18;101474.34;5141649;27;20401;-32
2022/06/04 07:08:26;;;;;;;0.10;0.10;;;;;;;21.30;43.37;101491.81;5141519;27;20049;-33
2022/06/04 07:10:53;;;;;;;0.10;0.10;;;;;;;21.31;43.15;101492.63;5140136;27;20199;-33
2022/06/04 07:13:19;;;;;;;0.10;0.10;;;;;;;21.31;43.26;101487.09;5143416;27;20043;-33
2022/06/04 07:15:44;;;;;;;0.10;0.10;;;;;;;21.30;43.26;101483.50;5138257;27;20089;-33
2022/06/04 07:18:11;;;;;;;0.10;0.10;;;;;;;21.31;43.18;101476.00;5137310;27;20047;-33
2022/06/04 07:20:38;;;;;;;0.10;0.10;;;;;;;21.31;43.25;101467.69;5121350;27;20083;-33
2022/06/04 07:23:04;;;;;;;0.10;0.10;;;;;;;21.29;43.33;101468.00;5140933;27;20073;-33
2022/06/04 07:25:30;;;;;;;0.10;0.10;;;;;;;21.30;43.26;101468.81;5143944;27;20039;-33
2022/06/04 07:27:56;;;;;;;0.10;0.10;;;;;;;21.30;43.19;101457.72;5140240;27;20043;-34
2022/06/04 07:30:21;;;;;;;0.10;0.10;;;;;;;21.30;43.21;101480.72;5140814;27;21277;-33
2022/06/04 07:32:47;;;;;;;0.10;0.10;;;;;;;21.29;43.21;101476.28;5140387;27;20401;-33
2022/06/04 07:35:13;;;;;;;0.10;0.10;;;;;;;21.29;43.28;101495.69;5140603;27;20047;-33
2022/06/04 07:37:40;;;;;;;0.10;0.10;;;;;;;21.30;43.29;101488.22;5141988;27;20047;-33
2022/06/04 07:40:06;;;;;;;0.10;0.10;;;;;;;21.30;43.42;101493.75;5145875;27;20071;-33
2022/06/04 07:42:32;;;;;;;0.22;0.22;;;;;;;21.29;43.27;101483.78;5142526;27;20166;-32
2022/06/04 07:44:58;;;;;;;0.10;0.10;;;;;;;21.29;43.30;101495.69;5142312;27;20078;-32
2022/06/04 07:47:24;;;;;;;0.10;0.10;;;;;;;21.30;43.42;101493.75;5144050;27;20080;-33
2022/06/04 07:49:50;;;;;;;0.10;0.10;;;;;;;21.30;43.24;101493.75;5144478;27;20077;-33
2022/06/04 07:52:16;;;;;;;0.10;0.10;;;;;;;21.29;43.26;101498.47;5142682;27;20043;-33
2022/06/04 07:54:42;;;;;;;0.10;0.10;;;;;;;21.28;43.27;101502.31;5142707;27;20082;-33
2022/06/04 07:57:07;;;;;;;0.10;0.10;;;;;;;21.29;43.29;101504.00;5121763;27;20508;-33
2022/06/04 07:59:33;;;;;;;0.10;0.10;;;;;;;21.30;43.35;101499.28;5144643;27;20039;-33
2022/06/04 08:01:59;;;;;;;0.20;0.20;;;;;;;21.29;43.27;101509.53;5143747;27;20389;-34
2022/06/04 08:04:24;;;;;;;0.10;0.10;;;;;;;21.29;43.32;101503.19;5141708;27;20096;-34
2022/06/04 08:06:50;;;;;;;0.10;0.10;;;;;;;21.29;43.38;101506.78;5144540;27;20043;-34
2022/06/04 08:09:16;;;;;;;0.10;0.10;;;;;;;21.28;43.08;101496.78;5144410;27;20043;-34
2022/06/04 08:11:42;;;;;;;0.10;0.10;;;;;;;21.28;43.41;101499.53;5142867;27;20050;-33
2022/06/04 08:14:13;;;;;;;0.10;0.10;;;;;;;21.29;43.36;101486.56;5139156;27;20094;-33
2022/06/04 08:16:41;;;;;;;0.10;0.10;;;;;;;21.27;43.26;101492.34;5144853;27;20419;-33
2022/06/04 08:19:08;;;;;;;0.10;0.10;;;;;;;21.29;43.41;101486.56;5141857;27;20111;-33
2022/06/04 08:21:35;;;;;;;0.10;0.10;;;;;;;21.28;43.28;101482.94;5145348;27;20066;-33
2022/06/04 08:24:00;;;;;;;0.10;0.10;;;;;;;21.28;43.20;101471.84;5143162;27;20142;-33
2022/06/04 08:26:27;;;;;;;0.13;0.13;;;;;;;21.27;43.38;101459.09;5142959;27;20043;-34
2022/06/04 08:28:52;;;;;;;0.10;0.10;;;;;;;21.28;43.35;101463.53;5144732;27;20112;-34
2022/06/04 08:31:18;;;;;;;0.10;0.10;;;;;;;21.29;43.27;101453.31;5144661;27;20461;-33
2022/06/04 08:33:44;;;;;;;0.10;0.10;;;;;;;21.28;43.29;101455.22;5141836;27;20047;-33
2022/06/04 08:36:12;;;;;;;0.20;0.20;;;;;;;21.29;43.29;101458.84;5142494;27;20490;-33
2022/06/04 08:38:38;;;;;;;0.10;0.10;;;;;;;21.28;43.28;101462.72;5123563;27;20486;-33
2022/06/04 08:41:07;;;;;;;0.10;0.10;;;;;;;21.28;43.29;101469.06;5141784;27;20070;-33
2022/06/04 08:43:56;;;;;;;0.10;0.10;;;;;;;21.29;43.35;101467.16;5141281;27;20043;-33
2022/06/04 08:46:31;;;;;;;0.10;0.10;;;;;;;21.29;43.38;101476.28;5130493;27;20138;-34
2022/06/04 08:49:00;;;;;;;0.17;0.17;;;;;;;21.29;43.33;101469.94;5141712;27;20049;-33
2022/06/04 08:51:28;;;;;;;0.10;0.10;;;;;;;21.28;43.34;101474.63;5144096;27;20131;-34
2022/06/04 08:53:56;;;;;;;0.10;0.10;;;;;;;21.28;43.41;101491.25;5143339;27;20139;-34
2022/06/04 08:59:36;;;;;;;0.10;0.10;;;;;;;21.26;43.43;101471.31;5128350;27;20070;-34
2022/06/04 09:02:04;;;;;;;0.10;0.10;;;;;;;21.27;43.36;101478.50;5135524;27;20164;-33
2022/06/04 09:04:42;;;;;;;0.10;0.10;;;;;;;21.26;43.37;101471.31;5115581;27;20107;-33
2022/06/04 09:07:10;;;;;;;;;;;;;;;21.27;43.30;101478.50;5144781;27;20154;-33
2022/06/04 09:09:42;;;;;;;0.10;0.10;;;;;;;21.26;43.33;101487.09;5139437;27;19955;-34
2022/06/04 09:12:29;;;;;;;0.13;0.13;;;;;;;21.27;43.51;101495.13;5146124;27;20126;-33
2022/06/04 09:14:59;;;;;;;0.10;0.10;;;;;;;21.27;43.34;101505.38;5127586;27;20069;-33
2022/06/04 09:17:44;;;;;;;0.10;0.10;;;;;;;21.28;43.30;101507.03;5140368;27;20369;-33
2022/06/04 09:20:36;;;;;;;0.10;0.10;;;;;;;21.28;43.44;101515.34;5143653;27;20485;-33
2022/06/04 09:23:12;;;;;;;0.10;0.10;;;;;;;21.28;43.44;101515.34;5128880;27;20461;-33
2022/06/04 09:25:46;;;;;;;0.10;0.10;;;;;;;21.27;43.25;101513.69;5147435;27;20446;-33
2022/06/04 09:28:29;;;;;;;0.10;0.10;;;;;;;21.27;43.21;101519.22;5143644;27;20621;-34
2022/06/04 09:31:04;;;;;;;0.10;0.10;;;;;;;21.26;43.47;101526.72;5143044;27;20051;-33
2022/06/04 09:33:50;;;;;;;0.10;0.10;;;;;;;21.26;43.33;101528.66;5143397;27;20093;-33
2022/06/04 09:36:17;;;;;;;0.10;0.10;;;;;;;21.27;43.37;101527.53;5122597;27;20442;-33
2022/06/04 09:38:54;;;;;;;0.10;0.10;;;;;;;21.27;43.25;101527.53;5139951;27;20124;-33
2022/06/04 09:41:22;;;;;;;0.10;0.10;;;;;;;21.27;43.28;101525.59;5140976;27;20480;-33
2022/06/04 09:44:07;;;;;;;0.10;0.10;;;;;;;21.28;43.38;101526.44;5140718;27;20039;-33
2022/06/04 09:46:33;;;;;;;0.10;0.10;;;;;;;21.27;43.52;101527.53;5142232;27;20503;-34
2022/06/04 09:49:00;;;;;;;0.10;0.10;;;;;;;21.27;43.29;101527.53;5140386;27;20070;-33
2022/06/04 09:51:28;;;;;;;0.10;0.10;;;;;;;21.27;43.50;101522.00;5140618;27;20077;-33
2022/06/04 09:53:59;;;;;;;0.10;0.10;;;;;;;21.25;43.52;101519.53;5141257;27;20147;-33
2022/06/04 09:56:32;;;;;;;0.10;0.10;;;;;;;21.27;43.25;101511.75;5122933;27;20073;-34
2022/06/04 09:59:19;;;;;;;0.10;0.10;;;;;;;21.27;43.34;101517.28;5123572;27;20051;-33
2022/06/04 10:02:15;;;;;;;0.10;0.10;;;;;;;21.27;43.54;101513.69;5131295;27;20069;-33
2022/06/04 10:04:46;;;;;;;0.10;0.10;;;;;;;21.27;43.40;101519.22;5128232;27;20083;-33
2022/06/04 10:07:15;;;;;;;0.10;0.10;;;;;;;21.27;43.31;101514.50;5123204;27;20070;-34
2022/06/04 10:10:00;;;;;;;0.10;0.10;;;;;;;21.26;43.43;101512.88;5143765;27;20500;-33
2022/06/04 10:18:18;;;;;;;0.10;0.10;;;;;;;21.26;43.52;101515.63;5169429;27;20113;-33
2022/06/04 10:20:55;;;;;;;0.10;0.10;;;;;;;21.27;43.46;101519.22;5150513;27;20074;-32
2022/06/04 10:23:21;;;;;;;0.10;0.10;;;;;;;21.27;43.54;101519.22;5145924;27;20097;-32
2022/06/04 10:26:04;;;;;;;0.10;0.10;;;;;;;21.28;43.37;101523.66;5151253;27;20071;-32
2022/06/04 10:29:09;;;;;;;0.10;0.10;;;;;;;21.25;43.40;101516.75;5149309;27;20078;-32
2022/06/04 10:31:46;;;;;;;0.20;0.20;;;;;;;21.26;43.40;101523.13;5135903;27;20079;-32
2022/06/04 10:34:27;;;;;;;0.10;0.10;;;;;;;21.26;43.44;101523.13;5154174;27;20043;-32
2022/06/04 10:37:21;;;;;;;0.10;0.10;;;;;;;21.26;43.53;101514.81;5146783;27;20528;-32
2022/06/04 10:39:58;;;;;;;0.20;0.20;;;;;;;21.25;43.33;101515.94;5136452;27;20089;-32
2022/06/04 10:45:16;;;;;;;0.10;0.10;;;;;;;21.27;43.58;101510.91;5178845;27;20200;-32
2022/06/04 10:47:49;;;;;;;0.10;0.10;;;;;;;21.27;43.42;101519.22;5152855;27;20500;-32
2022/06/04 10:50:26;;;;;;;0.13;0.13;;;;;;;21.25;43.43;101513.97;5154414;27;20070;-33
2022/06/04 10:53:14;;;;;;;0.10;0.10;;;;;;;21.25;43.58;101515.94;5153459;27;20070;-33
2022/06/04 10:55:45;;;;;;;0.10;0.10;;;;;;;21.25;43.55;101513.16;5153344;27;20123;-33
2022/06/04 10:58:36;;;;;;;0.10;0.10;;;;;;;21.26;43.44;101503.72;5155343;27;20434;-33
2022/06/04 11:01:07;;;;;;;0.10;0.10;;;;;;;21.25;43.35;101516.75;5156839;27;20038;-33
2022/06/04 11:03:56;;;;;;;0.10;0.10;;;;;;;21.26;43.38;101512.03;5156444;27;20046;-33
2022/06/04 11:06:26;;;;;;;0.10;0.10;;;;;;;21.26;43.44;101509.28;5143416;27;20125;-33
2022/06/04 11:08:56;;;;;;;0.10;0.10;;;;;;;21.25;43.58;101507.63;5156482;27;20058;-33
2022/06/04 11:11:29;;;;;;;0.10;0.10;;;;;;;21.26;43.32;101523.13;5154782;27;20080;-33
2022/06/04 11:14:02;;;;;;;0.10;0.10;;;;;;;21.27;43.35;101519.22;5137448;27;20074;-32
2022/06/04 11:16:33;;;;;;;0.10;0.10;;;;;;;21.27;43.30;101516.47;5154583;27;20074;-33
2022/06/04 11:19:06;;;;;;;0.10;0.10;;;;;;;21.26;43.46;101512.03;5153173;27;20050;-33
2022/06/04 11:21:44;;;;;;;0.10;0.10;;;;;;;21.26;43.47;101503.72;5151252;27;20066;-33
2022/06/04 11:24:24;;;;;;;0.10;0.10;;;;;;;21.25;43.54;101513.97;5153949;27;20093;-33
2022/06/04 11:26:55;;;;;;;0.10;0.10;;;;;;;21.26;43.40;101510.09;5154567;27;20121;-33
2022/06/04 11:29:20;;;;;;;0.10;0.10;;;;;;;21.26;43.40;101515.63;5155716;27;20513;-33
2022/06/04 11:31:55;;;;;;;0.10;0.10;;;;;;;21.26;43.60;101515.63;5159017;27;20053;-33
2022/06/04 11:34:34;;;;;;;0.10;0.10;;;;;;;21.26;43.42;101517.56;5156057;27;20106;-34
2022/06/04 11:37:10;;;;;;;0.10;0.10;;;;;;;21.26;43.43;101523.94;5154222;27;20068;-33
2022/06/04 11:40:01;;;;;;;0.10;0.10;;;;;;;21.26;43.38;101512.03;5155388;27;20039;-32
2022/06/04 11:42:51;;;;;;;0.13;0.13;;;;;;;21.25;43.33;101515.94;5137501;27;20120;-33
2022/06/04 11:45:42;;;;;;;0.10;0.10;;;;;;;21.26;43.37;101518.41;5141509;27;20141;-33
2022/06/04 11:48:47;;;;;;;0.10;0.10;;;;;;;21.25;43.48;101513.16;5136802;27;20122;-33
2022/06/04 11:51:40;;;;;;;0.10;0.10;;;;;;;21.25;43.47;101513.16;5129147;27;20078;-33
2022/06/04 11:54:20;;;;;;;0.10;0.10;;;;;;;21.25;43.55;101510.38;5142376;27;20082;-33
2022/06/04 11:57:10;;;;;;;0.10;0.10;;;;;;;21.25;43.46;101515.94;5141708;27;20074;-33
2022/06/04 12:00:03;;;;;;;0.10;0.10;;;;;;;21.26;43.57;101523.13;5141892;27;20089;-33
2022/06/04 12:02:43;;;;;;;0.10;0.10;;;;;;;21.25;43.45;101527.84;5145185;27;20046;-33
2022/06/04 12:05:47;;;;;;;0.10;0.10;;;;;;;21.25;43.52;101529.78;5138195;27;20100;-33
2022/06/04 12:08:16;;;;;;;0.10;0.10;;;;;;;21.24;43.45;101512.34;5127740;27;20122;-33
2022/06/04 12:10:56;;;;;;;0.10;0.10;;;;;;;21.25;43.48;101527.84;5141309;27;20070;-33